createdAt,value
2023-04-18T00:01:10.062Z,10.95
2023-04-18T00:02:44.432Z,10.98
2023-04-18T00:04:18.986Z,11.00
2023-04-18T00:05:52.277Z,11.00
2023-04-18T00:07:24.465Z,11.01
2023-04-18T00:08:56.831Z,11.01
2023-04-18T00:10:28.983Z,11.00
2023-04-18T00:12:03.467Z,11.01
2023-04-18T00:13:35.898Z,11.00
2023-04-18T00:15:09.408Z,10.97
2023-04-18T00:16:41.448Z,11.02
2023-04-18T00:18:16.538Z,10.99
2023-04-18T00:19:48.697Z,10.96
2023-04-18T00:21:23.700Z,10.94
2023-04-18T00:22:56.506Z,10.95
2023-04-18T00:24:28.627Z,10.97
2023-04-18T00:26:03.254Z,10.99
2023-04-18T00:27:35.403Z,10.90
2023-04-18T00:29:07.504Z,10.86
2023-04-18T00:30:39.614Z,10.87
2023-04-18T00:32:11.756Z,10.86
2023-04-18T00:33:43.884Z,10.88
2023-04-18T00:35:16.272Z,10.87
2023-04-18T00:36:48.359Z,10.87
2023-04-18T00:38:20.569Z,10.85
2023-04-18T00:39:54.362Z,10.81
2023-04-18T00:41:28.620Z,10.81
2023-04-18T00:43:01.124Z,10.82
2023-04-18T00:44:33.313Z,10.71
2023-04-18T00:46:05.732Z,10.62
2023-04-18T00:47:37.976Z,10.58
2023-04-18T00:49:10.365Z,10.61
2023-04-18T00:50:42.755Z,10.57
2023-04-18T00:52:15.224Z,10.59
2023-04-18T00:53:47.530Z,10.54
2023-04-18T00:55:19.764Z,10.56
2023-04-18T00:56:51.996Z,10.47
2023-04-18T00:58:24.869Z,10.49
2023-04-18T00:59:57.169Z,10.49
2023-04-18T01:01:29.570Z,10.46
2023-04-18T01:03:01.969Z,10.46
2023-04-18T01:04:34.384Z,10.48
2023-04-18T01:06:06.926Z,10.48
2023-04-18T01:07:41.946Z,10.50
2023-04-18T01:09:14.568Z,10.42
2023-04-18T01:10:47.258Z,10.39
2023-04-18T01:12:19.521Z,10.38
2023-04-18T01:14:02.088Z,10.42
2023-04-18T01:15:34.316Z,10.35
2023-04-18T01:17:08.475Z,10.35
2023-04-18T01:18:40.645Z,10.31
2023-04-18T01:20:14.157Z,10.27
2023-04-18T01:21:46.560Z,10.28
2023-04-18T01:23:19.716Z,10.30
2023-04-18T01:24:51.797Z,10.27
2023-04-18T01:26:23.987Z,10.23
2023-04-18T01:27:59.209Z,10.25
2023-04-18T01:29:31.408Z,10.20
2023-04-18T01:31:03.644Z,10.17
2023-04-18T01:32:35.971Z,10.22
2023-04-18T01:34:08.877Z,10.23
2023-04-18T01:35:41.337Z,10.16
2023-04-18T01:37:13.489Z,10.19
2023-04-18T01:38:45.866Z,10.16
2023-04-18T01:40:20.698Z,10.21
2023-04-18T01:41:52.814Z,10.15
2023-04-18T01:43:24.946Z,10.15
2023-04-18T01:44:57.090Z,10.14
2023-04-18T01:46:29.432Z,10.20
2023-04-18T01:48:01.561Z,10.17
2023-04-18T01:49:33.759Z,10.21
2023-04-18T01:51:06.300Z,10.21
2023-04-18T01:52:38.719Z,10.16
2023-04-18T01:54:10.948Z,10.22
2023-04-18T01:55:43.074Z,10.23
2023-04-18T01:57:15.104Z,10.26
2023-04-18T01:58:47.337Z,10.27
2023-04-18T02:00:20.087Z,10.29
2023-04-18T02:01:52.991Z,10.30
2023-04-18T02:03:25.903Z,10.27
2023-04-18T02:04:58.264Z,10.30
2023-04-18T02:06:30.417Z,10.35
2023-04-18T02:08:02.585Z,10.40
2023-04-18T02:09:34.757Z,10.39
2023-04-18T02:11:06.831Z,10.41
2023-04-18T02:12:38.864Z,10.47
2023-04-18T02:14:11.093Z,10.47
2023-04-18T02:15:45.644Z,10.43
2023-04-18T02:17:17.826Z,10.43
2023-04-18T02:18:53.082Z,10.42
2023-04-18T02:20:26.612Z,10.46
2023-04-18T02:21:58.853Z,10.45
2023-04-18T02:23:30.955Z,10.45
2023-04-18T02:25:03.147Z,10.45
2023-04-18T02:26:35.266Z,10.43
2023-04-18T02:28:07.649Z,10.43
2023-04-18T02:29:39.874Z,10.44
2023-04-18T02:31:15.240Z,10.46
2023-04-18T02:32:47.549Z,10.46
2023-04-18T02:34:20.041Z,10.46
2023-04-18T02:35:52.216Z,10.45
2023-04-18T02:37:24.304Z,10.46
2023-04-18T02:38:56.506Z,10.45
2023-04-18T02:40:28.721Z,10.46
2023-04-18T02:42:02.011Z,10.46
2023-04-18T02:43:34.107Z,10.46
2023-04-18T02:45:07.448Z,10.48
2023-04-18T02:46:39.544Z,10.43
2023-04-18T02:48:11.632Z,10.41
2023-04-18T02:49:43.703Z,10.45
2023-04-18T02:51:16.070Z,10.43
2023-04-18T02:52:48.196Z,10.39
2023-04-18T02:54:20.393Z,10.37
2023-04-18T02:55:52.502Z,10.36
2023-04-18T02:57:24.553Z,10.36
2023-04-18T02:58:56.892Z,10.38
2023-04-18T03:00:29.137Z,10.38
2023-04-18T03:02:01.346Z,10.36
2023-04-18T03:03:33.610Z,10.36
2023-04-18T03:05:07.517Z,10.42
2023-04-18T03:06:39.829Z,10.45
2023-04-18T03:08:12.091Z,10.43
2023-04-18T03:09:44.238Z,10.46
2023-04-18T03:11:16.406Z,10.46
2023-04-18T03:12:48.697Z,10.46
2023-04-18T03:14:20.886Z,10.48
2023-04-18T03:15:53.119Z,10.50
2023-04-18T03:17:25.437Z,10.53
2023-04-18T03:18:57.626Z,10.51
2023-04-18T03:20:29.786Z,10.52
2023-04-18T03:22:02.044Z,10.48
2023-04-18T03:23:34.174Z,10.48
2023-04-18T03:25:07.480Z,10.50
2023-04-18T03:26:39.728Z,10.50
2023-04-18T03:28:11.899Z,10.50
2023-04-18T03:29:44.174Z,10.50
2023-04-18T03:31:16.459Z,10.51
2023-04-18T03:32:49.433Z,10.51
2023-04-18T03:34:21.620Z,10.51
2023-04-18T03:35:53.705Z,10.51
2023-04-18T03:37:26.565Z,10.52
2023-04-18T03:38:58.739Z,10.52
2023-04-18T03:40:30.912Z,10.51
2023-04-18T03:42:03.285Z,10.51
2023-04-18T03:43:35.425Z,10.48
2023-04-18T03:45:08.177Z,10.48
2023-04-18T03:46:40.742Z,10.47
2023-04-18T03:48:13.269Z,10.42
2023-04-18T03:49:45.436Z,10.38
2023-04-18T03:51:17.678Z,10.36
2023-04-18T03:52:49.854Z,10.37
2023-04-18T03:54:21.998Z,10.33
2023-04-18T03:55:54.198Z,10.33
2023-04-18T03:57:26.774Z,10.32
2023-04-18T03:58:59.339Z,10.31
2023-04-18T04:00:31.682Z,10.31
2023-04-18T04:02:04.036Z,10.34
2023-04-18T04:03:36.413Z,10.36
2023-04-18T04:05:09.431Z,10.36
2023-04-18T04:06:41.933Z,10.36
2023-04-18T04:08:15.518Z,10.39
2023-04-18T04:09:47.622Z,10.35
2023-04-18T04:11:19.819Z,10.30
2023-04-18T04:12:52.046Z,10.29
2023-04-18T04:14:25.030Z,10.25
2023-04-18T04:15:57.616Z,10.31
2023-04-18T04:17:29.757Z,10.27
2023-04-18T04:19:02.236Z,10.28
2023-04-18T04:20:34.492Z,10.29
2023-04-18T04:22:06.617Z,10.30
2023-04-18T04:23:38.778Z,10.30
2023-04-18T04:25:11.081Z,10.29
2023-04-18T04:26:43.662Z,10.31
2023-04-18T04:28:16.392Z,10.33
2023-04-18T04:29:49.606Z,10.36
2023-04-18T04:31:22.691Z,10.37
2023-04-18T04:32:56.662Z,10.37
2023-04-18T04:34:28.888Z,10.38
2023-04-18T04:36:01.667Z,10.32
2023-04-18T04:37:33.976Z,10.30
2023-04-18T04:39:06.091Z,10.32
2023-04-18T04:40:43.223Z,10.24
2023-04-18T04:42:15.721Z,10.32
2023-04-18T04:43:48.276Z,10.32
2023-04-18T04:45:21.008Z,10.37
2023-04-18T04:46:54.857Z,10.35
2023-04-18T04:48:27.400Z,10.34
2023-04-18T04:49:59.525Z,10.30
2023-04-18T04:51:32.171Z,10.28
2023-04-18T04:53:05.404Z,10.31
2023-04-18T04:54:37.604Z,10.30
2023-04-18T04:56:10.063Z,10.32
2023-04-18T04:57:42.230Z,10.31
2023-04-18T04:59:14.659Z,10.28
2023-04-18T05:00:47.008Z,10.26
2023-04-18T05:02:19.294Z,10.17
2023-04-18T05:03:52.926Z,10.17
2023-04-18T05:05:25.235Z,10.19
2023-04-18T05:06:57.903Z,10.19
2023-04-18T05:08:30.003Z,10.21
2023-04-18T05:10:02.144Z,10.23
2023-04-18T05:11:34.225Z,10.27
2023-04-18T05:13:06.530Z,10.27
2023-04-18T05:14:38.676Z,10.29
2023-04-18T05:16:10.853Z,10.27
2023-04-18T05:17:43.397Z,10.31
2023-04-18T05:19:15.769Z,10.32
2023-04-18T05:20:47.878Z,10.30
2023-04-18T05:22:19.981Z,10.31
2023-04-18T05:23:52.195Z,10.35
2023-04-18T05:25:24.484Z,10.36
2023-04-18T05:26:57.360Z,10.39
2023-04-18T05:28:29.567Z,10.41
2023-04-18T05:30:01.743Z,10.40
2023-04-18T05:31:34.109Z,10.43
2023-04-18T05:33:06.523Z,10.42
2023-04-18T05:34:38.903Z,10.41
2023-04-18T05:36:11.308Z,10.42
2023-04-18T05:37:43.444Z,10.45
2023-04-18T05:39:15.571Z,10.45
2023-04-18T05:40:47.851Z,10.33
2023-04-18T05:42:20.041Z,10.47
2023-04-18T05:44:04.279Z,10.48
2023-04-18T05:45:37.335Z,10.43
2023-04-18T05:47:09.476Z,10.41
2023-04-18T05:48:41.717Z,10.41
2023-04-18T05:50:13.918Z,10.40
2023-04-18T05:51:46.779Z,10.40
2023-04-18T05:53:18.926Z,10.40
2023-04-18T05:54:51.310Z,10.36
2023-04-18T05:56:23.435Z,10.31
2023-04-18T05:57:55.731Z,10.27
2023-04-18T05:59:27.892Z,10.27
2023-04-18T06:00:59.996Z,10.26
2023-04-18T06:02:32.562Z,10.28
2023-04-18T06:04:04.995Z,10.28
2023-04-18T06:05:37.458Z,10.27
2023-04-18T06:07:09.910Z,10.24
2023-04-18T06:08:42.223Z,10.18
2023-04-18T06:10:14.697Z,10.19
2023-04-18T06:11:46.948Z,10.19
2023-04-18T06:13:19.068Z,10.13
2023-04-18T06:14:51.540Z,10.13
2023-04-18T06:16:23.819Z,10.16
2023-04-18T06:17:56.118Z,10.18
2023-04-18T06:19:28.306Z,10.11
2023-04-18T06:21:00.760Z,10.07
2023-04-18T06:22:34.523Z,10.09
2023-04-18T06:24:07.243Z,10.11
2023-04-18T06:25:42.143Z,10.16
2023-04-18T06:27:27.876Z,10.14
2023-04-18T06:29:03.152Z,10.13
2023-04-18T06:30:35.491Z,10.13
2023-04-18T06:32:07.758Z,10.15
2023-04-18T06:33:39.930Z,10.17
2023-04-18T06:35:12.219Z,10.19
2023-04-18T06:36:44.491Z,10.21
2023-04-18T06:38:16.638Z,10.16
2023-04-18T06:39:48.742Z,10.22
2023-04-18T06:41:20.886Z,10.27
2023-04-18T06:42:53.226Z,10.34
2023-04-18T06:44:25.390Z,10.30
2023-04-18T06:45:57.725Z,10.29
2023-04-18T06:47:30.421Z,10.26
2023-04-18T06:49:02.588Z,10.26
2023-04-18T06:50:34.757Z,10.25
2023-04-18T06:52:07.172Z,10.29
2023-04-18T06:53:39.395Z,10.33
2023-04-18T06:55:14.616Z,10.37
2023-04-18T06:56:46.764Z,10.37
2023-04-18T06:58:18.916Z,10.39
2023-04-18T06:59:51.058Z,10.41
2023-04-18T07:01:23.282Z,10.43
2023-04-18T07:02:55.587Z,10.44
2023-04-18T07:04:27.962Z,10.44
2023-04-18T07:06:00.148Z,10.46
2023-04-18T07:07:33.555Z,10.47
2023-04-18T07:09:05.562Z,10.53
2023-04-18T07:10:37.699Z,10.47
2023-04-18T07:12:09.847Z,10.50
2023-04-18T07:13:42.027Z,10.50
2023-04-18T07:15:14.369Z,10.50
2023-04-18T07:16:47.554Z,10.53
2023-04-18T07:18:30.222Z,10.51
2023-04-18T07:20:10.011Z,10.57
2023-04-18T07:21:45.224Z,10.59
2023-04-18T07:23:17.282Z,10.63
2023-04-18T07:24:49.506Z,10.63
2023-04-18T07:26:21.696Z,10.63
2023-04-18T07:27:53.804Z,10.65
2023-04-18T07:29:25.895Z,10.66
2023-04-18T07:30:58.417Z,10.70
2023-04-18T07:32:30.751Z,10.68
2023-04-18T07:34:02.890Z,10.73
2023-04-18T07:35:36.423Z,10.81
2023-04-18T07:37:08.598Z,10.81
2023-04-18T07:38:40.780Z,10.80
2023-04-18T07:40:13.462Z,10.81
2023-04-18T07:41:45.565Z,10.84
2023-04-18T07:43:18.401Z,10.81
2023-04-18T07:44:57.425Z,10.85
2023-04-18T07:46:29.761Z,10.88
2023-04-18T07:48:02.947Z,10.90
2023-04-18T07:49:35.019Z,10.92
2023-04-18T07:51:07.091Z,10.99
2023-04-18T07:52:39.584Z,11.04
2023-04-18T07:54:11.745Z,11.06
2023-04-18T07:55:43.999Z,11.06
2023-04-18T07:57:16.192Z,11.06
2023-04-18T07:58:48.323Z,11.08
2023-04-18T08:00:20.688Z,11.09
2023-04-18T08:01:52.906Z,11.16
2023-04-18T08:03:25.343Z,11.20
2023-04-18T08:04:57.777Z,11.25
2023-04-18T08:06:30.205Z,11.30
2023-04-18T08:08:02.404Z,11.33
2023-04-18T08:09:34.922Z,11.38
2023-04-18T08:11:07.021Z,11.38
2023-04-18T08:12:39.367Z,11.42
2023-04-18T08:14:11.995Z,11.42
2023-04-18T08:15:44.118Z,11.47
2023-04-18T08:17:16.348Z,11.48
2023-04-18T08:18:48.586Z,11.44
2023-04-18T08:20:21.149Z,11.45
2023-04-18T08:21:53.317Z,11.44
2023-04-18T08:23:25.652Z,11.43
2023-04-18T08:25:04.505Z,11.50
2023-04-18T08:26:37.781Z,11.47
2023-04-18T08:28:10.132Z,11.48
2023-04-18T08:29:42.177Z,11.51
2023-04-18T08:31:16.785Z,11.53
2023-04-18T08:32:50.017Z,11.48
2023-04-18T08:34:22.538Z,11.47
2023-04-18T08:35:54.797Z,11.46
2023-04-18T08:37:28.346Z,11.48
2023-04-18T08:39:00.508Z,11.51
2023-04-18T08:40:32.716Z,11.50
2023-04-18T08:42:06.819Z,11.53
2023-04-18T08:43:39.038Z,11.48
2023-04-18T08:45:14.336Z,11.48
2023-04-18T08:46:46.809Z,11.48
2023-04-18T08:48:19.279Z,11.48
2023-04-18T08:49:52.633Z,11.52
2023-04-18T08:51:25.058Z,11.55
2023-04-18T08:52:57.214Z,11.53
2023-04-18T08:54:30.989Z,11.58
2023-04-18T08:56:03.317Z,11.59
2023-04-18T08:59:15.156Z,11.55
2023-04-18T09:00:51.472Z,11.64
2023-04-18T09:02:47.596Z,11.69
2023-04-18T09:04:38.370Z,11.71
2023-04-18T09:06:16.526Z,11.53
2023-04-18T09:07:50.535Z,11.55
2023-04-18T09:09:27.787Z,11.58
2023-04-18T09:11:30.419Z,11.71
2023-04-18T09:13:06.305Z,11.69
2023-04-18T09:14:43.191Z,11.67
2023-04-18T09:16:15.355Z,11.68
2023-04-18T09:17:56.587Z,11.70
2023-04-18T09:19:30.412Z,11.66
2023-04-18T09:21:19.846Z,11.71
2023-04-18T09:22:54.652Z,11.68
2023-04-18T09:24:28.868Z,11.65
2023-04-18T09:26:00.997Z,11.65
2023-04-18T09:27:35.201Z,11.66
2023-04-18T09:29:07.456Z,11.58
2023-04-18T09:30:41.161Z,11.54
2023-04-18T09:32:27.487Z,11.55
2023-04-18T09:34:01.155Z,11.50
2023-04-18T09:35:33.815Z,11.53
2023-04-18T09:37:13.846Z,11.55
2023-04-18T09:38:46.962Z,11.53
2023-04-18T09:40:19.898Z,11.57
2023-04-18T09:41:58.959Z,11.62
2023-04-18T09:43:31.040Z,11.58
2023-04-18T09:45:06.798Z,11.59
2023-04-18T09:46:39.069Z,11.59
2023-04-18T09:48:11.436Z,11.57
2023-04-18T09:49:43.581Z,11.52
2023-04-18T09:51:16.933Z,11.58
2023-04-18T09:52:48.942Z,11.63
2023-04-18T09:54:24.574Z,11.52
2023-04-18T09:55:57.812Z,11.51
2023-04-18T09:57:31.511Z,11.63
2023-04-18T09:59:10.916Z,11.57
2023-04-18T10:00:45.005Z,11.57
2023-04-18T10:02:22.491Z,11.62
2023-04-18T10:03:56.707Z,11.63
2023-04-18T10:05:32.518Z,11.61
2023-04-18T10:07:04.954Z,11.55
2023-04-18T10:08:37.100Z,11.53
2023-04-18T10:10:09.686Z,11.58
2023-04-18T10:11:41.969Z,11.53
2023-04-18T10:13:14.706Z,11.52
2023-04-18T10:14:46.982Z,11.49
2023-04-18T10:16:20.835Z,11.48
2023-04-18T10:19:32.334Z,11.48
2023-04-18T10:21:06.145Z,11.48
2023-04-18T10:22:40.606Z,11.58
2023-04-18T10:24:53.610Z,11.62
2023-04-18T10:26:47.314Z,11.70
2023-04-18T10:28:21.414Z,11.52
2023-04-18T10:29:54.629Z,11.49
2023-04-18T10:31:28.438Z,11.52
2023-04-18T10:33:30.517Z,11.60
2023-04-18T10:35:05.252Z,11.58
2023-04-18T10:36:37.392Z,11.57
2023-04-18T10:38:17.601Z,11.61
2023-04-18T10:39:57.632Z,11.58
2023-04-18T10:41:33.657Z,11.60
2023-04-18T10:43:07.270Z,11.55
2023-04-18T10:44:39.452Z,11.54
2023-04-18T10:46:27.998Z,11.48
2023-04-18T10:48:26.363Z,11.54
2023-04-18T10:49:59.513Z,11.52
2023-04-18T10:51:31.969Z,11.46
2023-04-18T10:53:04.049Z,11.47
2023-04-18T10:55:02.128Z,11.54
2023-04-18T10:58:15.986Z,11.54
2023-04-18T10:59:52.855Z,11.49
2023-04-18T11:01:31.623Z,11.44
2023-04-18T11:03:04.880Z,11.46
2023-04-18T11:04:38.144Z,11.49
2023-04-18T11:06:10.330Z,11.42
2023-04-18T11:07:46.288Z,11.42
2023-04-18T11:09:18.427Z,11.44
2023-04-18T11:11:03.317Z,11.38
2023-04-18T11:12:38.149Z,11.25
2023-04-18T11:14:10.996Z,11.33
2023-04-18T11:15:43.189Z,11.35
2023-04-18T11:17:26.470Z,11.30
2023-04-18T11:19:01.408Z,11.36
2023-04-18T11:20:41.405Z,11.44
2023-04-18T11:22:13.988Z,11.41
2023-04-18T11:23:46.192Z,11.29
2023-04-18T11:25:19.821Z,11.34
2023-04-18T11:28:25.399Z,11.40
2023-04-18T11:29:57.874Z,11.35
2023-04-18T11:31:30.061Z,11.26
2023-04-18T11:33:06.885Z,11.25
2023-04-18T11:34:39.112Z,11.21
2023-04-18T11:36:11.245Z,11.22
2023-04-18T11:37:46.016Z,11.16
2023-04-18T11:39:18.888Z,11.14
2023-04-18T11:40:51.543Z,11.02
2023-04-18T11:42:28.833Z,11.06
2023-04-18T11:44:01.986Z,11.01
2023-04-18T11:45:34.240Z,11.07
2023-04-18T11:47:25.508Z,11.04
2023-04-18T11:48:57.713Z,11.07
2023-04-18T11:50:39.069Z,11.08
2023-04-18T11:52:15.315Z,11.11
2023-04-18T11:53:47.418Z,11.15
2023-04-18T11:55:22.195Z,11.22
2023-04-18T11:56:54.324Z,11.22
2023-04-18T11:58:35.728Z,11.31
2023-04-18T12:00:10.330Z,11.32
2023-04-18T12:01:42.554Z,11.36
2023-04-18T12:03:19.091Z,11.39
2023-04-18T12:04:57.806Z,11.32
2023-04-18T12:06:51.157Z,11.17
2023-04-18T12:08:25.777Z,10.96
2023-04-18T12:10:01.298Z,10.92
2023-04-18T12:11:33.412Z,10.90
2023-04-18T12:13:09.269Z,10.96
2023-04-18T14:30:49.664Z,10.96
2023-04-18T14:32:21.864Z,10.95
2023-04-18T14:33:54.001Z,10.97
2023-04-18T14:35:26.127Z,10.95
2023-04-18T14:36:58.255Z,10.93
2023-04-18T14:38:30.384Z,10.99
2023-04-18T14:40:02.429Z,11.02
2023-04-18T14:41:34.607Z,11.04
2023-04-18T14:43:06.724Z,11.06
2023-04-18T14:44:38.863Z,11.08
2023-04-18T14:46:16.735Z,11.14
2023-04-18T14:47:49.238Z,11.12
2023-04-18T14:49:21.459Z,11.16
2023-04-18T14:50:59.964Z,11.19
2023-04-18T14:52:32.047Z,11.15
2023-04-18T14:54:04.184Z,11.15
2023-04-18T14:55:36.921Z,11.16
2023-04-18T14:57:10.514Z,11.12
2023-04-18T14:58:43.349Z,11.14
2023-04-18T15:00:15.902Z,11.15
2023-04-18T15:01:48.157Z,11.14
2023-04-18T15:03:20.475Z,11.13
2023-04-18T15:04:53.712Z,11.15
2023-04-18T15:06:27.158Z,11.14
2023-04-18T15:07:59.235Z,11.14
2023-04-18T15:09:31.367Z,11.16
2023-04-18T15:11:09.453Z,11.17
2023-04-18T15:12:42.977Z,11.16
2023-04-18T15:14:19.226Z,11.17
2023-04-18T15:15:55.771Z,11.16
2023-04-18T15:17:31.494Z,11.15
2023-04-18T15:19:03.618Z,11.15
2023-04-18T15:20:37.448Z,11.17
2023-04-18T15:22:09.690Z,11.19
2023-04-18T15:23:41.944Z,11.19
2023-04-18T15:25:16.974Z,11.17
2023-04-18T15:26:49.082Z,11.15
2023-04-18T15:28:21.187Z,11.16
2023-04-18T15:29:53.790Z,11.18
2023-04-18T15:31:26.627Z,11.21
2023-04-18T15:32:59.303Z,11.20
2023-04-18T15:34:31.766Z,11.20
2023-04-18T15:36:03.998Z,11.21
2023-04-18T15:37:36.123Z,11.19
2023-04-18T15:39:09.519Z,11.21
2023-04-18T15:40:41.492Z,11.22
2023-04-18T15:42:13.557Z,11.20
2023-04-18T15:43:46.095Z,11.19
2023-04-18T15:45:18.939Z,11.19
2023-04-18T15:46:51.380Z,11.17
2023-04-18T15:48:23.450Z,11.19
2023-04-18T15:49:55.529Z,11.15
2023-04-18T15:51:30.801Z,11.14
2023-04-18T15:53:03.015Z,11.13
2023-04-18T15:54:36.070Z,11.06
2023-04-18T15:56:08.622Z,11.08
2023-04-18T15:57:41.935Z,11.05
2023-04-18T15:59:14.110Z,10.97
2023-04-18T16:00:46.676Z,10.99
2023-04-18T16:02:18.959Z,11.01
2023-04-18T16:03:51.235Z,11.00
2023-04-18T16:05:23.494Z,11.01
2023-04-18T16:06:56.261Z,11.00
2023-04-18T16:08:28.367Z,11.01
2023-04-18T16:10:03.140Z,11.00
2023-04-18T16:11:35.384Z,10.96
2023-04-18T16:13:07.564Z,10.97
2023-04-18T16:14:39.716Z,10.96
2023-04-18T16:16:12.035Z,10.97
2023-04-18T16:17:44.285Z,10.96
2023-04-18T16:19:17.516Z,10.96
2023-04-18T16:20:49.979Z,10.96
2023-04-18T16:22:22.314Z,10.98
2023-04-18T16:23:54.543Z,10.96
2023-04-18T16:25:26.927Z,10.94
2023-04-18T16:26:59.018Z,10.94
2023-04-18T16:28:31.289Z,10.96
2023-04-18T16:30:03.838Z,10.96
2023-04-18T16:31:36.035Z,10.96
2023-04-18T16:33:08.251Z,10.96
2023-04-18T16:34:40.384Z,10.94
2023-04-18T16:36:12.609Z,10.92
2023-04-18T16:37:44.717Z,10.94
2023-04-18T16:39:16.967Z,10.91
2023-04-18T16:40:49.117Z,10.89
2023-04-18T16:42:21.281Z,10.91
2023-04-18T16:43:56.490Z,10.90
2023-04-18T16:45:28.756Z,10.88
2023-04-18T16:47:01.242Z,10.89
2023-04-18T16:48:34.383Z,10.90
2023-04-18T16:50:07.825Z,10.90
2023-04-18T16:51:39.911Z,10.97
2023-04-18T16:53:12.515Z,10.88
2023-04-18T16:54:45.014Z,10.88
2023-04-18T16:56:17.134Z,10.83
2023-04-18T16:57:49.245Z,10.84
2023-04-18T16:59:21.344Z,10.86
2023-04-18T17:00:53.703Z,10.87
2023-04-18T17:02:26.094Z,10.88
2023-04-18T17:05:33.626Z,10.84
2023-04-18T17:07:06.006Z,10.89
2023-04-18T17:08:38.199Z,10.89
2023-04-18T17:10:10.913Z,10.89
2023-04-18T17:11:43.117Z,10.90
2023-04-18T17:13:15.222Z,10.92
2023-04-18T17:14:47.492Z,10.93
2023-04-18T17:16:19.899Z,10.92
2023-04-18T17:17:52.231Z,10.93
2023-04-18T17:19:24.552Z,10.92
2023-04-18T17:20:56.840Z,10.93
2023-04-18T17:22:29.964Z,10.93
2023-04-18T17:24:04.254Z,10.93
2023-04-18T17:25:37.074Z,10.94
2023-04-18T17:27:09.309Z,10.94
2023-04-18T17:28:41.436Z,10.96
2023-04-18T17:30:13.735Z,10.96
2023-04-18T17:31:46.027Z,10.94
2023-04-18T17:33:18.269Z,10.93
2023-04-18T17:34:50.422Z,10.94
2023-04-18T17:36:22.698Z,10.93
2023-04-18T17:37:54.844Z,10.90
2023-04-18T17:39:27.418Z,10.88
2023-04-18T17:41:00.956Z,10.91
2023-04-18T17:42:33.394Z,10.89
2023-04-18T17:44:07.971Z,10.92
2023-04-18T17:45:40.461Z,10.91
2023-04-18T17:47:12.636Z,10.92
2023-04-18T17:48:44.926Z,10.91
2023-04-18T17:50:17.871Z,10.90
2023-04-18T17:51:49.975Z,10.89
2023-04-18T17:53:22.706Z,10.91
2023-04-18T17:54:59.495Z,10.92
2023-04-18T17:56:31.868Z,10.88
2023-04-18T17:58:05.616Z,10.88
2023-04-18T17:59:38.274Z,10.88
2023-04-18T18:01:20.294Z,10.93
2023-04-18T18:04:31.431Z,10.84
2023-04-18T18:06:03.767Z,10.90
2023-04-18T18:07:38.631Z,10.88
2023-04-18T18:09:13.187Z,10.89
2023-04-18T18:10:47.198Z,10.89
2023-04-18T18:12:19.338Z,10.87
2023-04-18T18:13:54.918Z,10.85
2023-04-18T18:15:27.120Z,10.86
2023-04-18T18:16:59.312Z,10.85
2023-04-18T18:18:31.864Z,10.82
2023-04-18T18:20:09.218Z,10.86
2023-04-18T18:21:41.820Z,10.81
2023-04-18T18:23:13.883Z,10.81
2023-04-18T18:24:45.996Z,10.83
2023-04-18T18:26:18.151Z,10.83
2023-04-18T18:27:51.773Z,10.85
2023-04-18T18:29:24.124Z,10.86
2023-04-18T18:30:56.241Z,10.87
2023-04-18T18:32:31.150Z,10.87
2023-04-18T18:34:03.387Z,10.88
2023-04-18T18:35:35.544Z,10.89
2023-04-18T18:37:07.771Z,10.87
2023-04-18T18:38:39.869Z,10.87
2023-04-18T18:40:13.122Z,10.85
2023-04-18T18:41:45.244Z,10.87
2023-04-18T18:43:17.391Z,10.87
2023-04-18T18:44:49.481Z,10.87
2023-04-18T18:46:21.700Z,10.88
2023-04-18T18:47:54.091Z,10.87
2023-04-18T18:49:27.027Z,10.90
2023-04-18T18:50:59.172Z,10.89
2023-04-18T18:52:31.834Z,10.90
2023-04-18T18:54:03.942Z,10.89
2023-04-18T18:55:36.094Z,10.88
2023-04-18T18:57:09.061Z,10.85
2023-04-18T18:58:41.521Z,10.85
2023-04-18T19:00:13.977Z,10.85
2023-04-18T19:01:46.065Z,10.86
2023-04-18T19:03:20.073Z,10.86
2023-04-18T19:04:52.497Z,10.84
2023-04-18T19:06:24.716Z,10.85
2023-04-18T19:07:57.612Z,10.86
2023-04-18T19:09:29.753Z,10.84
2023-04-18T19:11:04.623Z,10.82
2023-04-18T19:12:37.996Z,10.84
2023-04-18T19:14:09.951Z,10.87
2023-04-18T19:15:42.193Z,10.83
2023-04-18T19:17:14.306Z,10.83
2023-04-18T19:18:47.716Z,10.81
2023-04-18T19:20:19.823Z,10.87
2023-04-18T19:21:51.956Z,10.82
2023-04-18T19:23:25.608Z,10.83
2023-04-18T19:24:58.906Z,10.81
2023-04-18T19:26:31.131Z,10.81
2023-04-18T19:28:05.284Z,10.81
2023-04-18T19:29:37.419Z,10.80
2023-04-18T19:31:09.997Z,10.80
2023-04-18T19:32:42.784Z,10.79
2023-04-18T19:34:14.872Z,10.80
2023-04-18T19:35:46.938Z,10.80
2023-04-18T19:37:19.161Z,10.80
2023-04-18T19:38:51.347Z,10.78
2023-04-18T19:40:27.016Z,10.77
2023-04-18T19:41:59.094Z,10.67
2023-04-18T19:43:31.172Z,10.64
2023-04-18T19:45:03.745Z,10.62
2023-04-18T19:46:36.088Z,10.59
2023-04-18T19:48:08.240Z,10.58
2023-04-18T19:49:40.403Z,10.58
2023-04-18T19:51:12.628Z,10.62
2023-04-18T19:52:44.800Z,10.65
2023-04-18T19:54:19.176Z,10.65
2023-04-18T19:55:52.498Z,10.67
2023-04-18T19:57:26.189Z,10.68
2023-04-18T19:58:58.509Z,10.63
2023-04-18T20:00:30.652Z,10.66
2023-04-18T20:02:05.716Z,10.68
2023-04-18T20:03:39.715Z,10.70
2023-04-18T20:05:13.265Z,10.71
2023-04-18T20:06:45.689Z,10.79
2023-04-18T20:08:17.850Z,10.71
2023-04-18T20:09:50.016Z,10.64
2023-04-18T20:11:22.684Z,10.63
2023-04-18T20:12:54.785Z,10.66
2023-04-18T20:14:28.527Z,10.69
2023-04-18T20:16:00.866Z,10.68
2023-04-18T20:17:34.977Z,10.68
2023-04-18T20:19:07.441Z,10.69
2023-04-18T20:20:39.657Z,10.69
2023-04-18T20:22:11.726Z,10.70
2023-04-18T20:23:46.274Z,10.76
2023-04-18T20:25:18.488Z,10.76
2023-04-18T20:26:51.781Z,10.76
2023-04-18T20:28:23.922Z,10.83
2023-04-18T20:29:57.297Z,10.76
2023-04-18T20:31:29.667Z,10.77
2023-04-18T20:33:01.856Z,10.77
2023-04-18T20:34:33.981Z,10.76
2023-04-18T20:36:07.121Z,10.77
2023-04-18T20:37:39.691Z,10.78
2023-04-18T20:39:16.161Z,10.77
2023-04-18T20:40:51.959Z,10.77
2023-04-18T20:42:24.013Z,10.78
2023-04-18T20:43:59.100Z,10.79
2023-04-18T20:45:32.284Z,10.79
2023-04-18T20:47:04.329Z,10.79
2023-04-18T20:48:36.510Z,10.80
2023-04-18T20:50:09.309Z,10.81
2023-04-18T20:51:41.623Z,10.80
2023-04-18T20:53:13.729Z,10.81
2023-04-18T20:54:45.954Z,10.79
2023-04-18T20:56:18.068Z,10.82
2023-04-18T20:57:50.177Z,10.81
2023-04-18T20:59:22.327Z,10.82
2023-04-18T21:00:54.345Z,10.79
2023-04-18T21:02:26.802Z,10.76
2023-04-18T21:03:59.150Z,10.67
2023-04-18T21:05:32.676Z,10.68
2023-04-18T21:07:04.787Z,10.62
2023-04-18T21:08:38.322Z,10.62
2023-04-18T21:10:10.808Z,10.66
2023-04-18T21:11:43.012Z,10.69
2023-04-18T21:13:18.202Z,10.68
2023-04-18T21:14:50.369Z,10.71
2023-04-18T21:16:24.258Z,10.72
2023-04-18T21:17:59.078Z,10.73
2023-04-18T21:19:31.292Z,10.71
2023-04-18T21:21:03.666Z,10.73
2023-04-18T21:22:35.810Z,10.71
2023-04-18T21:24:07.950Z,10.72
2023-04-18T21:25:40.158Z,10.75
2023-04-18T21:27:16.291Z,10.78
2023-04-18T21:28:59.238Z,10.80
2023-04-18T21:30:31.389Z,10.77
2023-04-18T21:32:06.295Z,10.78
2023-04-18T21:33:38.375Z,10.78
2023-04-18T21:35:13.900Z,10.81
2023-04-18T21:36:46.115Z,10.80
2023-04-18T21:38:18.282Z,10.79
2023-04-18T21:39:50.349Z,10.81
2023-04-18T21:41:23.125Z,10.79
2023-04-18T21:42:55.272Z,10.81
2023-04-18T21:44:27.508Z,10.81
2023-04-18T21:45:59.696Z,10.82
2023-04-18T21:47:33.478Z,10.84
2023-04-18T21:49:05.575Z,10.81
2023-04-18T21:50:37.691Z,10.82
2023-04-18T21:52:09.850Z,10.80
2023-04-18T21:53:42.509Z,10.79
2023-04-18T21:55:14.732Z,10.79
2023-04-18T21:56:46.888Z,10.80
2023-04-18T21:58:18.981Z,10.77
2023-04-18T21:59:51.130Z,10.80
2023-04-18T22:01:23.244Z,10.80
2023-04-18T22:02:55.592Z,10.82
2023-04-18T22:04:28.106Z,10.82
2023-04-18T22:06:02.482Z,10.85
2023-04-18T22:07:43.334Z,10.81
2023-04-18T22:09:22.976Z,10.81
2023-04-18T22:10:58.432Z,10.82
2023-04-18T22:12:30.546Z,10.81
2023-04-18T22:14:02.591Z,10.80
2023-04-18T22:15:34.775Z,10.80
2023-04-18T22:17:07.166Z,10.80
2023-04-18T22:18:39.267Z,10.78
2023-04-18T22:20:11.963Z,10.78
2023-04-18T22:21:44.040Z,10.78
2023-04-18T22:23:16.146Z,10.78
2023-04-18T22:24:48.620Z,10.80
2023-04-18T22:26:21.032Z,10.80
2023-04-18T22:27:53.067Z,10.79
2023-04-18T22:29:25.103Z,10.79